Time;durP1;ratioP1;P1;durP2;ratioP2;P2;SDS_P1;SDS_P2;PMS_P1;PMS_P2;Temp;Humidity;BMP_temperature;BMP_pressure;BME280_temperature;BME280_humidity;BME280_pressure;Samples;Min_cycle;Max_cycle;Signal;HPM_P1;HPM_P2
2023/10/08 00:02:05;;;;;;;5.50;2.53;;;;;;;16.71;58.17;97934.75;10447390;28;20079;-74
2023/10/08 00:07:27;;;;;;;7.25;2.55;;;;;;;16.71;58.06;97929.13;10462826;28;20071;-73
2023/10/08 00:12:50;;;;;;;12.93;2.55;;;;;;;16.72;58.27;97942.56;10446969;28;20116;-73
2023/10/08 00:18:14;;;;;;;5.63;2.38;;;;;;;16.68;58.15;97931.09;10447396;28;20065;-74
2023/10/08 00:23:42;;;;;;;6.35;2.65;;;;;;;16.67;58.20;97945.78;10460454;28;20414;-74
2023/10/08 00:29:06;;;;;;;8.07;2.55;;;;;;;16.56;58.27;97936.88;10438365;28;20375;-74
2023/10/08 00:34:27;;;;;;;4.95;2.20;;;;;;;16.43;58.87;97925.66;10419263;28;20075;-72
2023/10/08 00:39:49;;;;;;;6.95;2.97;;;;;;;16.37;58.82;97923.28;10460453;28;20130;-72
2023/10/08 00:45:13;;;;;;;9.65;2.78;;;;;;;16.43;58.88;97920.75;10460351;28;20171;-75
2023/10/08 00:50:42;;;;;;;6.45;2.90;;;;;;;16.46;58.82;97907.47;10445215;28;20041;-75
2023/10/08 00:56:11;;;;;;;5.70;2.03;;;;;;;16.53;58.70;97909.22;10459577;28;20117;-72
2023/10/08 01:01:31;;;;;;;8.77;2.50;;;;;;;16.65;58.91;97903.44;10419160;28;20057;-72
2023/10/08 01:06:59;;;;;;;5.47;2.38;;;;;;;16.75;58.75;97907.47;10444759;28;20048;-71
2023/10/08 01:12:33;;;;;;;11.13;2.92;;;;;;;16.78;58.55;97906.19;10432465;28;20033;-70
2023/10/08 01:18:00;;;;;;;6.82;2.50;;;;;;;16.79;58.38;97902.03;10446234;28;20116;-71
2023/10/08 01:23:22;;;;;;;8.60;2.92;;;;;;;16.76;58.42;97888.47;10417320;28;20474;-71
2023/10/08 01:28:43;;;;;;;7.60;2.63;;;;;;;16.62;58.39;97899.78;10429992;28;20065;-72
2023/10/08 01:34:04;;;;;;;8.85;2.47;;;;;;;16.62;58.80;97918.78;10442974;28;20455;-72
2023/10/08 01:39:26;;;;;;;6.75;2.45;;;;;;;16.68;58.77;97902.91;10428283;28;20065;-72
2023/10/08 01:44:48;;;;;;;6.60;2.40;;;;;;;16.72;58.70;97894.66;10428757;28;20132;-75
2023/10/08 01:50:21;;;;;;;6.43;2.63;;;;;;;16.76;58.59;97899.75;10415091;28;20041;-72
2023/10/08 01:55:48;;;;;;;5.93;2.30;;;;;;;16.79;58.61;97895.63;10444289;28;20069;-74
2023/10/08 02:01:12;;;;;;;7.80;2.22;;;;;;;16.75;58.62;97884.91;10441697;28;20364;-75
2023/10/08 02:06:32;;;;;;;6.43;1.97;;;;;;;16.84;58.82;97897.28;10415215;28;20072;-71
2023/10/08 02:11:54;;;;;;;5.88;2.17;;;;;;;16.88;58.45;97898.19;10414161;28;20503;-72
2023/10/08 02:17:14;;;;;;;5.53;2.28;;;;;;;16.88;58.45;97897.47;10428235;28;20116;-72
2023/10/08 02:22:35;;;;;;;6.93;2.38;;;;;;;16.82;58.72;97883.84;10442023;28;20040;-71
2023/10/08 02:27:57;;;;;;;8.48;2.38;;;;;;;16.74;58.75;97882.75;10441483;28;20064;-72
2023/10/08 02:33:17;;;;;;;7.47;2.65;;;;;;;16.69;59.12;97898.72;10441798;28;20519;-72
2023/10/08 02:38:38;;;;;;;8.82;2.67;;;;;;;16.62;59.45;97891.34;10455999;28;20069;-71
2023/10/08 02:44:00;;;;;;;6.93;2.55;;;;;;;16.60;59.65;97891.97;10427767;28;20068;-72
2023/10/08 02:49:24;;;;;;;7.63;2.47;;;;;;;16.51;59.74;97886.59;10458785;28;20072;-71
2023/10/08 02:54:45;;;;;;;7.70;2.30;;;;;;;16.44;60.04;97870.78;10422634;28;20088;-73
2023/10/08 03:00:12;;;;;;;9.15;2.58;;;;;;;16.44;60.29;97862.31;10436662;28;20079;-73
2023/10/08 03:05:35;;;;;;;8.50;2.83;;;;;;;16.39;60.54;97877.56;10449632;28;20060;-73
2023/10/08 03:11:02;;;;;;;6.10;2.28;;;;;;;16.43;60.79;97886.22;10448591;28;20514;-72
2023/10/08 03:16:34;;;;;;;5.75;2.25;;;;;;;16.52;60.71;97888.06;10435313;28;20041;-73
2023/10/08 03:21:57;;;;;;;5.55;2.28;;;;;;;16.59;60.61;97913.03;10463365;28;20072;-72
2023/10/08 03:27:26;;;;;;;7.53;2.50;;;;;;;16.69;60.65;97917.72;10435233;28;20048;-72
2023/10/08 03:32:55;;;;;;;6.18;2.25;;;;;;;16.76;60.65;97922.28;10462674;28;20509;-72
2023/10/08 03:38:28;;;;;;;5.82;2.35;;;;;;;16.79;60.71;97910.50;10423708;28;20490;-71
2023/10/08 03:44:01;;;;;;;7.82;2.63;;;;;;;16.83;60.76;97895.84;10449040;28;20471;-70
2023/10/08 03:54:48;;;;;;;9.95;2.30;;;;;;;16.85;60.91;97910.03;10433601;28;20116;-72
2023/10/08 04:00:14;;;;;;;7.32;2.47;;;;;;;16.83;60.80;97907.84;10460681;28;20090;-72
2023/10/08 04:06:04;;;;;;;8.70;2.22;;;;;;;16.83;61.27;97902.19;10434152;28;20464;-72
2023/10/08 04:11:32;;;;;;;6.22;2.10;;;;;;;16.82;61.29;97922.56;10440582;28;20126;-73
2023/10/08 04:16:53;;;;;;;7.93;2.65;;;;;;;16.90;61.41;97927.88;10445949;28;20102;-72
2023/10/08 04:22:16;;;;;;;9.52;2.63;;;;;;;16.97;61.58;97916.19;10445997;28;20064;-72
2023/10/08 04:27:37;;;;;;;;;;;;;;;17.02;61.88;97912.22;10446804;28;20064;-71
2023/10/08 04:33:06;;;;;;;11.15;2.65;;;;;;;17.04;61.84;97903.13;10460370;28;20347;-72
2023/10/08 04:38:39;;;;;;;8.45;2.95;;;;;;;17.09;61.93;97928.06;10433812;28;20455;-72
2023/10/08 04:44:07;;;;;;;8.05;2.33;;;;;;;17.12;61.74;97934.50;10434624;28;20068;-72
2023/10/08 04:49:28;;;;;;;6.35;2.45;;;;;;;17.17;62.09;97953.03;10460792;28;20124;-72
2023/10/08 04:54:54;;;;;;;4.05;1.33;;;;;;;17.01;62.62;98028.47;10460862;28;20119;-73
2023/10/08 05:00:15;;;;;;;2.80;0.75;;;;;;;16.46;63.80;98037.09;10445625;28;20068;-74
2023/10/08 05:05:54;;;;;;;1.00;0.20;;;;;;;15.88;66.06;98046.84;10418046;28;20069;-73
2023/10/08 05:11:24;;;;;;;1.17;0.10;;;;;;;15.27;67.68;98046.44;10459774;28;20065;-74
2023/10/08 05:17:00;;;;;;;1.23;0.10;;;;;;;14.69;68.52;98065.06;10419828;28;20041;-74
2023/10/08 05:33:23;;;;;;;0.10;0.00;;;;;;;13.78;69.43;98121.44;10444149;28;20056;-72
2023/10/08 05:39:00;;;;;;;0.20;0.00;;;;;;;13.67;69.56;98111.69;10458617;28;20041;-73
2023/10/08 05:49:54;;;;;;;0.20;0.00;;;;;;;13.35;70.02;98170.03;10443538;28;20049;-74
2023/10/08 05:55:25;;;;;;;0.10;0.00;;;;;;;13.22;70.38;98201.44;10431374;28;20037;-74
2023/10/08 06:17:23;;;;;;;0.00;0.00;;;;;;;12.68;71.54;98257.38;10431446;28;20041;-74
2023/10/08 06:22:45;;;;;;;0.10;0.00;;;;;;;12.28;73.10;98282.00;10451026;28;20045;-75
2023/10/08 06:28:09;;;;;;;0.10;0.00;;;;;;;11.82;74.28;98293.44;10467091;28;20049;-75
2023/10/08 06:33:31;;;;;;;;;;;;;;;11.58;75.03;98309.19;10452255;28;20492;-74
2023/10/08 06:38:55;;;;;;;0.15;0.00;;;;;;;11.31;75.26;98308.59;10442567;28;19925;-73
2023/10/08 06:44:16;;;;;;;0.00;0.00;;;;;;;11.14;75.87;98323.44;10441935;28;20422;-73
2023/10/08 06:49:38;;;;;;;0.13;0.00;;;;;;;11.09;76.22;98344.72;10442219;28;20453;-73
2023/10/08 06:55:02;;;;;;;0.22;0.10;;;;;;;11.05;76.36;98361.19;10442288;28;20068;-74
2023/10/08 07:00:38;;;;;;;0.53;0.00;;;;;;;11.05;76.68;98388.41;10456571;28;20052;-73
2023/10/08 07:06:00;;;;;;;0.20;0.00;;;;;;;11.03;76.48;98402.94;10432048;28;20275;-74
2023/10/08 07:11:22;;;;;;;0.20;0.00;;;;;;;11.03;76.50;98405.75;10427927;28;20040;-73
2023/10/08 07:16:43;;;;;;;0.38;0.10;;;;;;;11.05;77.25;98428.25;10441106;28;20045;-73
2023/10/08 07:22:18;;;;;;;0.47;0.25;;;;;;;11.03;77.07;98442.06;10455652;28;20124;-74
2023/10/08 07:27:40;;;;;;;1.00;0.10;;;;;;;11.02;76.73;98454.56;10431957;28;20483;-72
2023/10/08 07:33:03;;;;;;;1.35;0.10;;;;;;;11.06;76.65;98466.03;10427192;28;20041;-72
2023/10/08 07:38:28;;;;;;;0.50;0.00;;;;;;;11.06;77.00;98466.03;10433283;28;20040;-73
2023/10/08 07:43:55;;;;;;;0.25;0.10;;;;;;;11.23;76.53;98482.00;10448014;28;20128;-73
2023/10/08 07:49:17;;;;;;;0.68;0.30;;;;;;;11.28;76.36;98488.63;10434806;28;20328;-73
2023/10/08 07:54:39;;;;;;;1.20;0.20;;;;;;;11.33;75.92;98476.44;10420290;28;20045;-73
2023/10/08 08:00:18;;;;;;;1.33;0.22;;;;;;;11.43;75.98;98499.56;10448371;28;20398;-73
2023/10/08 08:05:40;;;;;;;0.70;0.30;;;;;;;11.46;75.40;98501.19;10450140;28;20053;-73
2023/10/08 08:11:07;;;;;;;0.80;0.10;;;;;;;11.37;75.80;98510.28;10447329;28;20102;-73
2023/10/08 08:16:29;;;;;;;1.65;0.10;;;;;;;11.53;76.48;98525.50;10433735;28;20091;-72
2023/10/08 08:21:52;;;;;;;0.30;0.15;;;;;;;11.62;75.15;98547.16;10446538;28;20044;-73
2023/10/08 08:27:23;;;;;;;0.82;0.25;;;;;;;11.52;74.94;98532.41;10447502;28;20052;-73
2023/10/08 08:32:49;;;;;;;1.25;0.20;;;;;;;11.46;75.06;98537.53;10435631;28;20429;-72
2023/10/08 08:38:13;;;;;;;2.72;0.30;;;;;;;11.57;75.00;98548.16;10434519;28;20048;-72
2023/10/08 08:43:34;;;;;;;1.90;0.70;;;;;;;11.81;75.07;98546.53;10445943;28;20457;-72
2023/10/08 08:48:55;;;;;;;1.23;0.40;;;;;;;11.93;74.48;98555.09;10431590;28;20080;-73
2023/10/08 08:54:16;;;;;;;1.20;0.30;;;;;;;12.11;73.23;98573.25;10445668;28;20069;-73
2023/10/08 08:59:37;;;;;;;1.90;0.50;;;;;;;12.06;73.03;98574.25;10431361;28;20466;-73
2023/10/08 09:04:59;;;;;;;0.63;0.20;;;;;;;12.06;72.98;98596.63;10431280;28;20437;-72
2023/10/08 09:10:26;;;;;;;2.88;0.40;;;;;;;12.01;72.90;98618.00;10444943;28;20560;-73
2023/10/08 09:15:46;;;;;;;0.95;0.30;;;;;;;12.04;73.33;98625.19;10431167;28;20475;-73
2023/10/08 09:21:19;;;;;;;1.58;0.43;;;;;;;12.24;72.70;98620.38;10430337;28;20045;-73
2023/10/08 09:26:40;;;;;;;3.08;0.40;;;;;;;12.57;72.93;98628.41;10445884;28;20056;-73
2023/10/08 09:32:01;;;;;;;1.75;0.40;;;;;;;12.75;71.73;98624.16;10445267;28;20116;-74
2023/10/08 09:37:22;;;;;;;2.85;0.90;;;;;;;12.74;71.54;98645.09;10443769;28;20047;-73
2023/10/08 09:42:43;;;;;;;1.58;0.43;;;;;;;12.83;71.20;98641.53;10458625;28;20049;-73
2023/10/08 09:48:05;;;;;;;4.28;0.43;;;;;;;12.92;70.93;98658.94;10458684;28;20048;-73
2023/10/08 09:53:35;;;;;;;3.70;0.70;;;;;;;13.09;70.69;98639.91;10443392;28;20045;-73
2023/10/08 09:58:56;;;;;;;2.33;0.60;;;;;;;13.32;70.20;98638.75;10457269;28;20041;-72
2023/10/08 10:04:31;;;;;;;3.95;0.80;;;;;;;13.35;69.77;98651.56;10429289;28;20053;-72
2023/10/08 10:09:53;;;;;;;3.42;0.85;;;;;;;13.44;69.66;98662.75;10430595;28;20485;-74
2023/10/08 10:15:17;;;;;;;3.65;0.70;;;;;;;13.44;69.05;98645.19;10414998;28;20045;-74
2023/10/08 10:20:56;;;;;;;4.05;0.98;;;;;;;13.51;69.11;98654.75;10420921;28;20065;-74
2023/10/08 10:26:23;;;;;;;3.25;0.93;;;;;;;13.71;68.71;98679.38;10429101;28;20045;-74
2023/10/08 10:31:46;;;;;;;3.75;0.95;;;;;;;13.80;67.76;98686.31;10456892;28;20046;-74
2023/10/08 10:37:19;;;;;;;2.85;0.70;;;;;;;13.62;67.00;98690.63;10415108;28;20048;-74
2023/10/08 10:42:42;;;;;;;4.70;1.10;;;;;;;13.27;66.23;98695.84;10444040;28;20045;-73
2023/10/08 10:53:44;;;;;;;4.38;1.23;;;;;;;13.56;66.55;98690.94;10441908;28;19971;-73
2023/10/08 10:59:27;;;;;;;2.47;0.80;;;;;;;13.77;64.92;98704.31;10443332;28;20053;-73
2023/10/08 11:04:48;;;;;;;4.68;1.23;;;;;;;14.23;63.91;98703.25;10444420;28;20079;-74
2023/10/08 11:10:15;;;;;;;3.88;1.08;;;;;;;14.45;63.18;98706.88;10458895;28;20534;-74
2023/10/08 11:15:40;;;;;;;3.58;1.00;;;;;;;14.59;61.61;98694.53;10437105;28;20049;-72
2023/10/08 11:21:15;;;;;;;5.03;1.77;;;;;;;14.66;61.37;98692.09;10449020;28;20045;-73
2023/10/08 11:26:48;;;;;;;5.47;1.33;;;;;;;15.27;61.67;98701.72;10423774;28;20040;-73
2023/10/08 11:32:13;;;;;;;4.55;1.55;;;;;;;16.95;58.89;98688.75;10437795;28;20044;-73
2023/10/08 11:37:33;;;;;;;3.33;0.85;;;;;;;16.62;55.23;98685.38;10420878;28;20427;-74
2023/10/08 11:42:58;;;;;;;4.47;1.00;;;;;;;16.24;54.95;98690.19;10463731;28;20045;-73
2023/10/08 11:48:25;;;;;;;4.47;1.15;;;;;;;15.97;54.68;98685.03;10463163;28;20159;-73
2023/10/08 11:53:47;;;;;;;3.33;0.93;;;;;;;16.15;53.56;98688.22;10448177;28;20458;-75
2023/10/08 11:59:08;;;;;;;3.92;1.10;;;;;;;16.48;53.48;98679.63;10434079;28;20064;-73
2023/10/08 12:04:29;;;;;;;2.92;0.70;;;;;;;17.00;51.97;98684.81;10433250;28;20488;-74
2023/10/08 12:09:51;;;;;;;3.30;0.90;;;;;;;17.19;50.58;98697.16;10461912;28;20124;-73
2023/10/08 12:15:19;;;;;;;2.85;0.77;;;;;;;17.04;49.55;98698.41;10447383;28;20060;-74
2023/10/08 12:20:43;;;;;;;3.50;0.88;;;;;;;17.87;49.21;98685.41;10447080;28;20107;-73
2023/10/08 12:26:07;;;;;;;3.80;0.98;;;;;;;18.12;47.81;98702.28;10447124;28;20450;-73
2023/10/08 12:31:29;;;;;;;2.97;0.80;;;;;;;18.72;45.96;98709.66;10446563;28;20394;-73
2023/10/08 12:36:50;;;;;;;5.50;1.00;;;;;;;19.46;45.87;98691.31;10432329;28;20143;-73
2023/10/08 12:42:12;;;;;;;3.45;0.70;;;;;;;19.69;43.78;98687.50;10418667;28;20076;-73
2023/10/08 12:47:36;;;;;;;3.85;0.75;;;;;;;19.07;42.26;98697.94;10445964;28;20091;-74
2023/10/08 12:53:03;;;;;;;4.82;1.20;;;;;;;18.07;42.54;98694.94;10432567;28;20159;-73
2023/10/08 12:58:29;;;;;;;5.45;0.95;;;;;;;17.72;43.02;98681.06;10432275;28;20065;-73
2023/10/08 13:03:53;;;;;;;3.70;1.00;;;;;;;17.56;43.33;98691.44;10432449;28;20510;-73
2023/10/08 13:09:14;;;;;;;3.03;0.80;;;;;;;17.69;43.44;98693.56;10459628;28;20072;-73
2023/10/08 13:14:35;;;;;;;2.97;0.73;;;;;;;17.39;43.54;98698.28;10459416;28;20535;-72
2023/10/08 13:19:57;;;;;;;3.75;0.63;;;;;;;16.97;44.08;98696.59;10459156;28;20150;-73
2023/10/08 13:25:17;;;;;;;3.80;0.80;;;;;;;17.22;44.46;98695.91;10416768;28;20128;-72
2023/10/08 13:30:38;;;;;;;4.65;0.73;;;;;;;17.71;44.27;98696.53;10443965;28;20067;-72
2023/10/08 13:35:59;;;;;;;3.00;0.85;;;;;;;17.45;44.01;98688.03;10415966;28;20118;-73
2023/10/08 13:41:41;;;;;;;2.65;0.80;;;;;;;17.77;44.43;98696.88;10446205;28;20510;-72
2023/10/08 13:47:05;;;;;;;3.42;0.52;;;;;;;17.82;43.87;98680.88;10443794;28;20041;-72
2023/10/08 13:52:26;;;;;;;2.92;0.65;;;;;;;17.81;43.54;98677.31;10430229;28;20041;-72
2023/10/08 13:57:48;;;;;;;5.43;0.82;;;;;;;18.03;43.10;98686.25;10442890;28;20122;-73
2023/10/08 14:03:09;;;;;;;4.75;0.90;;;;;;;17.52;43.40;98683.47;10457536;28;20081;-72
2023/10/08 14:08:31;;;;;;;3.55;0.80;;;;;;;17.63;43.46;98677.03;10442540;28;20506;-71
2023/10/08 14:13:52;;;;;;;3.67;0.60;;;;;;;17.97;42.77;98674.63;10428759;28;20061;-72
2023/10/08 14:19:13;;;;;;;2.83;0.70;;;;;;;18.26;41.92;98676.88;10442231;28;20064;-72
2023/10/08 14:24:37;;;;;;;2.00;0.70;;;;;;;18.47;41.83;98670.91;10442563;28;20116;-72
2023/10/08 14:30:04;;;;;;;2.95;1.10;;;;;;;18.31;41.15;98667.97;10442102;28;20060;-71
2023/10/08 14:46:46;;;;;;;4.25;0.82;;;;;;;17.21;41.00;98692.34;10465837;28;20071;-72
2023/10/08 14:52:07;;;;;;;4.25;0.82;;;;;;;16.55;42.13;98692.72;10455232;28;20045;-72
2023/10/08 14:57:27;;;;;;;2.50;0.60;;;;;;;16.03;42.44;98688.97;10454711;28;20071;-73
2023/10/08 15:02:48;;;;;;;3.15;0.65;;;;;;;15.74;43.36;98699.81;10427214;28;20156;-72
2023/10/08 15:08:10;;;;;;;5.47;1.00;;;;;;;15.43;43.45;98680.22;10469990;28;20041;-72
2023/10/08 15:13:33;;;;;;;2.15;0.70;;;;;;;15.22;43.73;98691.53;10455156;28;20136;-72
2023/10/08 15:18:56;;;;;;;3.92;1.02;;;;;;;14.93;44.40;98686.88;10441819;28;20136;-72
2023/10/08 15:24:23;;;;;;;3.70;0.67;;;;;;;14.70;44.76;98675.53;10455778;28;20076;-72
2023/10/08 15:29:43;;;;;;;4.53;1.33;;;;;;;14.46;45.26;98685.88;10454638;28;20075;-71
2023/10/08 15:35:08;;;;;;;3.83;0.98;;;;;;;14.24;46.34;98687.88;10454826;28;20069;-71
2023/10/08 15:40:30;;;;;;;4.70;1.20;;;;;;;14.11;46.86;98691.22;10454828;28;20547;-70
2023/10/08 15:45:52;;;;;;;3.85;1.10;;;;;;;13.89;47.09;98707.22;10454565;28;20051;-71
2023/10/08 15:51:13;;;;;;;4.20;1.20;;;;;;;13.72;48.18;98719.41;10454708;28;20455;-71
2023/10/08 15:56:35;;;;;;;3.95;1.20;;;;;;;13.42;48.30;98699.06;10437140;28;20060;-71
2023/10/08 16:01:56;;;;;;;5.18;2.03;;;;;;;13.14;48.90;98685.78;10434323;28;20068;-72
2023/10/08 16:07:16;;;;;;;5.05;1.63;;;;;;;12.88;49.91;98696.53;10433410;28;20060;-72
2023/10/08 16:12:37;;;;;;;5.00;1.38;;;;;;;12.71;50.27;98704.34;10433411;28;20069;-72
2023/10/08 16:17:58;;;;;;;5.15;1.42;;;;;;;12.48;50.95;98713.88;10462056;28;20095;-72
2023/10/08 16:23:19;;;;;;;6.22;1.50;;;;;;;12.27;51.85;98717.22;10433416;28;20072;-72
2023/10/08 16:28:40;;;;;;;3.30;1.20;;;;;;;12.07;52.39;98726.13;10433053;28;20044;-73
2023/10/08 16:34:01;;;;;;;5.40;1.40;;;;;;;11.86;52.90;98740.56;10446432;28;20041;-71
2023/10/08 16:39:24;;;;;;;4.10;1.20;;;;;;;11.69;53.78;98758.88;10446426;28;20061;-72
2023/10/08 16:44:45;;;;;;;4.20;1.30;;;;;;;11.55;54.35;98740.94;10461353;28;20095;-72
2023/10/08 16:50:06;;;;;;;4.97;1.40;;;;;;;11.35;54.61;98736.53;10445821;28;20041;-72
2023/10/08 16:55:27;;;;;;;3.85;1.33;;;;;;;11.16;55.46;98735.06;10432060;28;20048;-72
2023/10/08 17:00:50;;;;;;;5.07;1.35;;;;;;;11.06;56.31;98723.06;10460072;28;20566;-72
2023/10/08 17:06:11;;;;;;;4.45;1.58;;;;;;;10.96;56.33;98744.59;10418825;28;20159;-71
2023/10/08 17:11:35;;;;;;;5.65;1.90;;;;;;;10.89;56.99;98753.78;10445314;28;20071;-73
2023/10/08 17:16:56;;;;;;;6.83;2.33;;;;;;;10.81;57.00;98759.47;10459726;28;20045;-72
2023/10/08 17:22:16;;;;;;;6.55;2.67;;;;;;;10.72;57.65;98764.97;10444820;28;20069;-72
2023/10/08 17:27:37;;;;;;;9.77;3.40;;;;;;;10.67;58.18;98774.28;10416829;28;20044;-71
2023/10/08 17:32:58;;;;;;;10.38;4.45;;;;;;;10.59;57.99;98780.69;10431167;28;20072;-73
2023/10/08 17:38:19;;;;;;;11.05;5.20;;;;;;;10.54;58.77;98790.03;10444049;28;20049;-73
2023/10/08 17:43:40;;;;;;;6.72;3.40;;;;;;;10.56;58.94;98784.63;10430288;28;20120;-73
2023/10/08 17:49:01;;;;;;;5.35;2.55;;;;;;;10.52;59.61;98787.09;10443859;28;20051;-73
2023/10/08 17:54:23;;;;;;;7.75;3.25;;;;;;;10.48;59.40;98792.31;10416463;28;20471;-72
2023/10/08 17:59:44;;;;;;;8.85;2.58;;;;;;;10.45;59.70;98787.88;10430011;28;20065;-73
2023/10/08 18:05:06;;;;;;;6.00;2.58;;;;;;;10.42;60.58;98783.44;10443529;28;20060;-73
2023/10/08 18:10:30;;;;;;;5.65;2.95;;;;;;;10.39;60.69;98790.13;10444439;28;20041;-73
2023/10/08 18:15:51;;;;;;;6.05;3.45;;;;;;;10.47;60.41;98787.28;10459405;28;20526;-73
2023/10/08 18:21:15;;;;;;;6.88;2.78;;;;;;;10.60;61.06;98790.53;10443893;28;20040;-73
2023/10/08 18:26:41;;;;;;;6.53;2.43;;;;;;;10.80;61.21;98799.13;10435870;28;20048;-73
2023/10/08 18:32:05;;;;;;;4.20;1.83;;;;;;;10.94;60.86;98802.38;10444553;28;20037;-72
2023/10/08 18:37:27;;;;;;;5.22;2.10;;;;;;;10.99;61.46;98798.56;10433241;28;20402;-72
2023/10/08 18:42:50;;;;;;;5.47;1.80;;;;;;;10.95;61.87;98787.81;10442566;28;20049;-71
2023/10/08 18:48:11;;;;;;;6.47;2.00;;;;;;;10.94;62.01;98764.00;10428334;28;20048;-73
2023/10/08 18:53:32;;;;;;;5.53;1.95;;;;;;;10.94;62.33;98769.59;10442128;28;20041;-72
2023/10/08 18:58:53;;;;;;;4.63;1.90;;;;;;;11.03;62.66;98754.97;10456694;28;20472;-72
2023/10/08 19:04:14;;;;;;;7.63;1.98;;;;;;;11.11;62.86;98743.72;10414054;28;20449;-73
2023/10/08 19:09:35;;;;;;;4.78;2.10;;;;;;;11.18;62.99;98763.16;10427722;28;20494;-72
2023/10/08 19:14:59;;;;;;;5.95;2.08;;;;;;;11.27;63.13;98747.81;10455972;28;20045;-73
2023/10/08 19:20:22;;;;;;;7.80;2.63;;;;;;;11.31;62.81;98739.03;10441565;28;20041;-72
2023/10/08 19:25:48;;;;;;;5.72;2.22;;;;;;;11.27;63.04;98728.25;10414158;28;20053;-73
2023/10/08 19:31:11;;;;;;;5.07;2.22;;;;;;;11.31;63.45;98725.03;10429721;28;20037;-73
2023/10/08 19:36:32;;;;;;;7.03;2.63;;;;;;;11.33;63.37;98722.41;10463600;28;20045;-73
2023/10/08 19:41:53;;;;;;;5.40;2.20;;;;;;;11.36;63.84;98740.81;10435253;28;20037;-73
2023/10/08 19:47:16;;;;;;;5.70;2.23;;;;;;;11.35;63.60;98728.91;10448655;28;20098;-73
2023/10/08 19:52:42;;;;;;;7.93;2.58;;;;;;;11.24;63.91;98717.47;10463188;28;20072;-72
2023/10/08 19:58:03;;;;;;;6.32;2.60;;;;;;;11.28;63.91;98732.50;10435312;28;20044;-72
2023/10/08 20:03:24;;;;;;;7.25;2.35;;;;;;;11.31;64.02;98736.22;10448216;28;20080;-72
2023/10/08 20:08:48;;;;;;;4.55;1.70;;;;;;;11.37;64.02;98733.91;10433526;28;20044;-72
2023/10/08 20:14:09;;;;;;;5.75;1.95;;;;;;;11.41;64.16;98734.25;10434564;28;20473;-72
2023/10/08 20:19:31;;;;;;;8.27;2.58;;;;;;;11.44;64.18;98697.47;10433249;28;20060;-73
2023/10/08 20:24:51;;;;;;;5.75;2.30;;;;;;;11.35;64.26;98661.81;10447078;28;20471;-72
2023/10/08 20:30:15;;;;;;;5.35;2.60;;;;;;;11.32;64.36;98639.88;10461781;28;20041;-73
2023/10/08 20:35:37;;;;;;;5.50;3.03;;;;;;;11.08;64.97;98650.59;10446355;28;20040;-73
2023/10/08 20:41:00;;;;;;;7.70;3.13;;;;;;;11.01;65.35;98662.63;10446394;28;20087;-73
2023/10/08 20:46:21;;;;;;;7.53;3.00;;;;;;;11.01;65.84;98662.63;10445891;28;20068;-73
2023/10/08 20:51:43;;;;;;;6.28;3.08;;;;;;;11.08;65.97;98683.38;10446347;28;20048;-73
2023/10/08 20:57:03;;;;;;;4.82;2.55;;;;;;;11.21;66.23;98696.28;10445745;28;20048;-73
2023/10/08 21:02:24;;;;;;;7.07;2.78;;;;;;;11.20;66.33;98703.94;10431855;28;20049;-73
2023/10/08 21:07:47;;;;;;;6.50;2.70;;;;;;;11.31;66.23;98717.41;10431445;28;20372;-73
2023/10/08 21:13:08;;;;;;;4.67;2.57;;;;;;;11.30;66.36;98724.31;10431826;28;20037;-73
2023/10/08 21:18:29;;;;;;;6.93;2.95;;;;;;;11.29;66.64;98719.28;10430955;28;20159;-72
2023/10/08 21:23:51;;;;;;;5.05;2.30;;;;;;;11.27;66.45;98713.53;10459381;28;20079;-72
2023/10/08 21:29:13;;;;;;;5.50;2.50;;;;;;;11.28;66.95;98721.31;10403189;28;20395;-73
2023/10/08 21:34:34;;;;;;;7.32;2.75;;;;;;;11.37;66.37;98717.13;10458836;28;20094;-71
2023/10/08 21:39:57;;;;;;;5.57;2.90;;;;;;;11.27;66.15;98652.03;10444098;28;20078;-72
2023/10/08 21:45:22;;;;;;;7.93;3.05;;;;;;;11.07;67.03;98685.44;10443967;28;20049;-72
2023/10/08 21:50:43;;;;;;;7.47;3.80;;;;;;;11.20;67.19;98689.22;10430921;28;20044;-72
2023/10/08 21:56:05;;;;;;;8.23;3.60;;;;;;;11.27;67.16;98666.75;10442689;28;20069;-72
2023/10/08 22:01:27;;;;;;;6.00;2.78;;;;;;;11.30;67.20;98648.09;10442591;28;20087;-74
2023/10/08 22:06:48;;;;;;;9.73;3.47;;;;;;;11.31;67.12;98650.31;10429465;28;20071;-73
2023/10/08 22:12:11;;;;;;;7.93;3.42;;;;;;;11.17;66.92;98635.94;10429160;28;20068;-73
2023/10/08 22:17:43;;;;;;;7.40;3.67;;;;;;;11.10;67.28;98630.47;10442820;28;20438;-72
2023/10/08 22:23:05;;;;;;;6.43;3.05;;;;;;;11.13;67.95;98630.03;10430338;28;20073;-73
2023/10/08 22:28:26;;;;;;;6.57;3.47;;;;;;;11.17;67.94;98613.59;10414489;28;20044;-73
2023/10/08 22:33:47;;;;;;;5.63;2.85;;;;;;;11.22;68.07;98616.72;10442523;28;20433;-73
2023/10/08 22:39:11;;;;;;;6.55;3.10;;;;;;;11.20;68.32;98622.16;10442255;28;20044;-73
2023/10/08 22:44:32;;;;;;;5.93;3.65;;;;;;;11.18;68.62;98611.53;10456619;28;20041;-72
2023/10/08 22:49:55;;;;;;;8.07;3.90;;;;;;;11.16;68.26;98606.53;10441883;28;20103;-73
2023/10/08 22:55:19;;;;;;;7.95;3.92;;;;;;;11.06;68.90;98588.97;10428626;28;20593;-72
2023/10/08 23:00:40;;;;;;;7.03;4.15;;;;;;;11.04;68.77;98602.03;10427829;28;20045;-73
2023/10/08 23:06:01;;;;;;;8.70;4.00;;;;;;;11.04;68.98;98604.84;10444034;28;20115;-73
2023/10/08 23:11:22;;;;;;;8.63;3.90;;;;;;;10.95;68.76;98591.53;10449940;28;20068;-73
2023/10/08 23:16:43;;;;;;;10.65;4.50;;;;;;;10.59;69.77;98587.31;10436454;28;20393;-72
2023/10/08 23:22:04;;;;;;;5.22;3.35;;;;;;;10.47;71.09;98587.06;10464629;28;20045;-73
2023/10/08 23:27:25;;;;;;;7.50;3.50;;;;;;;10.44;70.84;98579.84;10422443;28;20073;-73
2023/10/08 23:32:46;;;;;;;7.35;3.78;;;;;;;10.48;71.27;98571.78;10434948;28;20041;-72
2023/10/08 23:38:17;;;;;;;8.35;3.67;;;;;;;10.38;71.45;98559.06;10448894;28;20033;-73
2023/10/08 23:43:40;;;;;;;7.57;4.22;;;;;;;10.30;72.93;98553.56;10437548;28;20111;-74
2023/10/08 23:49:15;;;;;;;9.35;4.20;;;;;;;10.25;73.37;98541.34;10435183;28;20041;-72
2023/10/08 23:54:43;;;;;;;;;;;;;;;10.06;74.90;98537.63;10424441;28;20053;-73
